sensor_id;sensor_type;location;lat;lon;timestamp;pressure;altitude;pressure_sealevel;temperature;humidity
44297;BME280;51842;47.450;8.654;2022-09-09T00:04:34;95329.41;;;12.07;100.00
44297;BME280;51842;47.450;8.654;2022-09-09T00:16:24;95317.75;;;12.27;99.37
44297;BME280;51842;47.450;8.654;2022-09-09T00:27:46;95320.84;;;12.39;99.30
44297;BME280;51842;47.450;8.654;2022-09-09T00:30:32;95324.53;;;12.43;99.12
44297;BME280;51842;47.450;8.654;2022-09-09T00:33:12;95322.91;;;12.47;99.51
44297;BME280;51842;47.450;8.654;2022-09-09T00:35:54;95321.78;;;12.54;100.00
44297;BME280;51842;47.450;8.654;2022-09-09T00:38:40;95319.25;;;12.62;99.80
44297;BME280;51842;47.450;8.654;2022-09-09T00:41:51;95325.09;;;12.69;99.29
44297;BME280;51842;47.450;8.654;2022-09-09T00:44:34;95320.47;;;12.75;99.45
44297;BME280;51842;47.450;8.654;2022-09-09T00:47:32;95316.94;;;12.80;99.17
44297;BME280;51842;47.450;8.654;2022-09-09T00:53:12;95304.25;;;12.90;99.03
44297;BME280;51842;47.450;8.654;2022-09-09T00:56:14;95306.88;;;12.95;98.63
44297;BME280;51842;47.450;8.654;2022-09-09T00:59:06;95314.03;;;13.00;99.12
44297;BME280;51842;47.450;8.654;2022-09-09T01:01:36;95313.44;;;13.03;99.12
44297;BME280;51842;47.450;8.654;2022-09-09T01:04:25;95308.06;;;13.08;98.85
44297;BME280;51842;47.450;8.654;2022-09-09T01:07:09;95319.53;;;13.09;98.28
44297;BME280;51842;47.450;8.654;2022-09-09T01:10:03;95324.41;;;13.07;98.26
44297;BME280;51842;47.450;8.654;2022-09-09T01:12:43;95318.75;;;13.08;98.37
44297;BME280;51842;47.450;8.654;2022-09-09T01:15:25;95317.97;;;13.08;98.17
44297;BME280;51842;47.450;8.654;2022-09-09T01:18:22;95320.09;;;13.06;97.82
44297;BME280;51842;47.450;8.654;2022-09-09T01:29:30;95324.63;;;12.86;98.42
44297;BME280;51842;47.450;8.654;2022-09-09T01:32:49;95331.63;;;12.82;98.17
44297;BME280;51842;47.450;8.654;2022-09-09T01:38:16;95324.25;;;12.69;97.74
44297;BME280;51842;47.450;8.654;2022-09-09T01:40:48;95326.47;;;12.62;97.70
44297;BME280;51842;47.450;8.654;2022-09-09T01:43:22;95327.63;;;12.56;99.11
44297;BME280;51842;47.450;8.654;2022-09-09T01:45:54;95325.47;;;12.58;100.00
44297;BME280;51842;47.450;8.654;2022-09-09T01:48:23;95326.25;;;12.58;100.00
44297;BME280;51842;47.450;8.654;2022-09-09T01:50:52;95321.47;;;12.55;99.20
44297;BME280;51842;47.450;8.654;2022-09-09T01:53:20;95326.38;;;12.48;100.00
44297;BME280;51842;47.450;8.654;2022-09-09T02:07:50;95339.41;;;12.25;99.92
44297;BME280;51842;47.450;8.654;2022-09-09T02:10:33;95339.66;;;12.24;100.00
44297;BME280;51842;47.450;8.654;2022-09-09T02:13:10;95351.44;;;12.23;99.85
44297;BME280;51842;47.450;8.654;2022-09-09T02:18:19;95355.22;;;12.17;100.00
44297;BME280;51842;47.450;8.654;2022-09-09T02:20:48;95353.06;;;12.19;100.00
44297;BME280;51842;47.450;8.654;2022-09-09T02:23:15;95352.25;;;12.18;100.00
44297;BME280;51842;47.450;8.654;2022-09-09T02:25:52;95351.44;;;12.23;100.00
44297;BME280;51842;47.450;8.654;2022-09-09T02:28:22;95357.03;;;12.21;100.00
44297;BME280;51842;47.450;8.654;2022-09-09T02:30:51;95355.97;;;12.22;100.00
44297;BME280;51842;47.450;8.654;2022-09-09T02:33:33;95356.53;;;12.19;100.00
44297;BME280;51842;47.450;8.654;2022-09-09T02:36:08;95355.16;;;12.22;100.00
44297;BME280;51842;47.450;8.654;2022-09-09T02:38:46;95357.28;;;12.25;100.00
44297;BME280;51842;47.450;8.654;2022-09-09T02:41:19;95352.22;;;12.23;100.00
44297;BME280;51842;47.450;8.654;2022-09-09T02:43:47;95355.44;;;12.25;100.00
44297;BME280;51842;47.450;8.654;2022-09-09T02:49:10;95358.81;;;12.31;100.00
44297;BME280;51842;47.450;8.654;2022-09-09T02:52:00;95355.81;;;12.38;100.00
44297;BME280;51842;47.450;8.654;2022-09-09T02:54:33;95354.97;;;12.47;99.41
44297;BME280;51842;47.450;8.654;2022-09-09T02:57:16;95362.81;;;12.63;97.64
44297;BME280;51842;47.450;8.654;2022-09-09T02:59:44;95368.28;;;12.77;95.91
44297;BME280;51842;47.450;8.654;2022-09-09T03:02:16;95371.31;;;12.94;93.42
44297;BME280;51842;47.450;8.654;2022-09-09T03:04:44;95379.09;;;13.14;92.24
44297;BME280;51842;47.450;8.654;2022-09-09T03:07:17;95376.28;;;13.30;90.87
44297;BME280;51842;47.450;8.654;2022-09-09T03:09:47;95374.28;;;13.40;89.55
44297;BME280;51842;47.450;8.654;2022-09-09T03:12:13;95382.97;;;13.51;89.60
44297;BME280;51842;47.450;8.654;2022-09-09T03:14:42;95381.53;;;13.59;88.97
44297;BME280;51842;47.450;8.654;2022-09-09T03:17:10;95386.53;;;13.65;88.33
44297;BME280;51842;47.450;8.654;2022-09-09T03:19:37;95383.00;;;13.70;88.05
44297;BME280;51842;47.450;8.654;2022-09-09T03:22:03;95378.94;;;13.73;88.75
44297;BME280;51842;47.450;8.654;2022-09-09T03:24:32;95381.06;;;13.76;89.18
44297;BME280;51842;47.450;8.654;2022-09-09T03:27:04;95375.97;;;13.74;89.71
44297;BME280;51842;47.450;8.654;2022-09-09T03:29:33;95378.66;;;13.74;90.15
44297;BME280;51842;47.450;8.654;2022-09-09T03:32:02;95370.41;;;13.71;90.50
44297;BME280;51842;47.450;8.654;2022-09-09T03:34:34;95377.63;;;13.70;90.22
44297;BME280;51842;47.450;8.654;2022-09-09T03:37:03;95384.38;;;13.68;90.44
44297;BME280;51842;47.450;8.654;2022-09-09T03:39:32;95383.84;;;13.65;90.44
44297;BME280;51842;47.450;8.654;2022-09-09T03:42:06;95385.72;;;13.65;90.68
44297;BME280;51842;47.450;8.654;2022-09-09T03:44:32;95383.94;;;13.60;90.97
44297;BME280;51842;47.450;8.654;2022-09-09T03:47:00;95385.28;;;13.58;91.11
44297;BME280;51842;47.450;8.654;2022-09-09T03:49:29;95379.16;;;13.57;91.53
44297;BME280;51842;47.450;8.654;2022-09-09T03:51:56;95379.63;;;13.59;92.22
44297;BME280;51842;47.450;8.654;2022-09-09T03:54:24;95387.19;;;13.57;92.12
44297;BME280;51842;47.450;8.654;2022-09-09T03:56:55;95389.34;;;13.55;92.27
44297;BME280;51842;47.450;8.654;2022-09-09T03:59:21;95392.00;;;13.55;91.93
44297;BME280;51842;47.450;8.654;2022-09-09T04:01:48;95391.78;;;13.52;92.14
44297;BME280;51842;47.450;8.654;2022-09-09T04:04:14;95391.28;;;13.50;92.64
44297;BME280;51842;47.450;8.654;2022-09-09T04:06:39;95390.50;;;13.49;92.80
44297;BME280;51842;47.450;8.654;2022-09-09T04:09:05;95392.38;;;13.49;92.86
44297;BME280;51842;47.450;8.654;2022-09-09T04:11:31;95392.06;;;13.50;92.57
44297;BME280;51842;47.450;8.654;2022-09-09T04:13:57;95382.25;;;13.46;93.13
44297;BME280;51842;47.450;8.654;2022-09-09T04:16:28;95382.75;;;13.48;93.36
44297;BME280;51842;47.450;8.654;2022-09-09T04:18:53;95386.50;;;13.47;94.01
44297;BME280;51842;47.450;8.654;2022-09-09T04:21:22;95378.25;;;13.43;94.54
44297;BME280;51842;47.450;8.654;2022-09-09T04:23:48;95381.22;;;13.41;94.27
44297;BME280;51842;47.450;8.654;2022-09-09T04:26:17;95386.06;;;13.39;94.89
44297;BME280;51842;47.450;8.654;2022-09-09T04:28:46;95383.66;;;13.38;94.74
44297;BME280;51842;47.450;8.654;2022-09-09T04:31:19;95375.94;;;13.36;94.96
44297;BME280;51842;47.450;8.654;2022-09-09T04:33:50;95383.44;;;13.34;95.36
44297;BME280;51842;47.450;8.654;2022-09-09T04:36:17;95385.31;;;13.34;95.67
44297;BME280;51842;47.450;8.654;2022-09-09T04:38:46;95387.50;;;13.32;96.03
44297;BME280;51842;47.450;8.654;2022-09-09T04:41:14;95382.16;;;13.32;95.67
44297;BME280;51842;47.450;8.654;2022-09-09T04:43:43;95389.66;;;13.30;95.80
44297;BME280;51842;47.450;8.654;2022-09-09T04:46:12;95383.53;;;13.29;96.19
44297;BME280;51842;47.450;8.654;2022-09-09T04:48:41;95382.72;;;13.29;96.57
44297;BME280;51842;47.450;8.654;2022-09-09T04:51:12;95390.50;;;13.25;97.63
44297;BME280;51842;47.450;8.654;2022-09-09T04:53:39;95392.38;;;13.25;97.10
44297;BME280;51842;47.450;8.654;2022-09-09T04:56:16;95386.50;;;13.23;97.81
44297;BME280;51842;47.450;8.654;2022-09-09T04:58:43;95381.72;;;13.19;98.99
44297;BME280;51842;47.450;8.654;2022-09-09T05:01:37;95376.38;;;13.19;99.00
44297;BME280;51842;47.450;8.654;2022-09-09T05:04:09;95376.97;;;13.16;98.96
44297;BME280;51842;47.450;8.654;2022-09-09T05:06:44;95387.13;;;13.14;99.31
44297;BME280;51842;47.450;8.654;2022-09-09T05:09:11;95383.66;;;13.14;99.19
44297;BME280;51842;47.450;8.654;2022-09-09T05:11:43;95378.59;;;13.12;99.50
44297;BME280;51842;47.450;8.654;2022-09-09T05:14:15;95373.53;;;13.11;99.71
44297;BME280;51842;47.450;8.654;2022-09-09T05:16:41;95381.56;;;13.11;100.00
44297;BME280;51842;47.450;8.654;2022-09-09T05:19:09;95391.97;;;13.12;99.72
44297;BME280;51842;47.450;8.654;2022-09-09T05:21:35;95390.38;;;13.11;100.00
44297;BME280;51842;47.450;8.654;2022-09-09T05:26:32;95391.16;;;13.12;100.00
44297;BME280;51842;47.450;8.654;2022-09-09T05:28:58;95384.72;;;13.13;100.00
44297;BME280;51842;47.450;8.654;2022-09-09T05:31:25;95391.69;;;13.14;100.00
44297;BME280;51842;47.450;8.654;2022-09-09T05:33:54;95383.94;;;13.12;100.00
44297;BME280;51842;47.450;8.654;2022-09-09T05:36:22;95391.69;;;13.14;100.00
44297;BME280;51842;47.450;8.654;2022-09-09T05:38:51;95400.50;;;13.14;100.00
44297;BME280;51842;47.450;8.654;2022-09-09T05:41:19;95403.19;;;13.14;100.00
44297;BME280;51842;47.450;8.654;2022-09-09T05:43:46;95399.16;;;13.17;100.00
44297;BME280;51842;47.450;8.654;2022-09-09T05:46:21;95402.31;;;13.19;100.00
44297;BME280;51842;47.450;8.654;2022-09-09T05:48:49;95402.84;;;13.21;100.00
44297;BME280;51842;47.450;8.654;2022-09-09T05:51:24;95407.91;;;13.23;100.00
44297;BME280;51842;47.450;8.654;2022-09-09T05:53:50;95406.81;;;13.24;100.00
44297;BME280;51842;47.450;8.654;2022-09-09T05:56:26;95408.16;;;13.26;100.00
44297;BME280;51842;47.450;8.654;2022-09-09T05:58:54;95412.16;;;13.29;100.00
44297;BME280;51842;47.450;8.654;2022-09-09T06:01:24;95409.97;;;13.31;100.00
44297;BME280;51842;47.450;8.654;2022-09-09T06:03:53;95412.06;;;13.34;100.00
44297;BME280;51842;47.450;8.654;2022-09-09T06:06:22;95410.41;;;13.38;100.00
44297;BME280;51842;47.450;8.654;2022-09-09T06:08:55;95410.34;;;13.43;100.00
44297;BME280;51842;47.450;8.654;2022-09-09T06:11:30;95418.34;;;13.48;100.00
44297;BME280;51842;47.450;8.654;2022-09-09T06:14:02;95414.50;;;13.54;100.00
44297;BME280;51842;47.450;8.654;2022-09-09T06:16:29;95424.34;;;13.59;100.00
44297;BME280;51842;47.450;8.654;2022-09-09T06:19:02;95414.06;;;13.66;100.00
44297;BME280;51842;47.450;8.654;2022-09-09T06:21:37;95409.47;;;13.72;100.00
44297;BME280;51842;47.450;8.654;2022-09-09T06:24:09;95397.38;;;13.74;100.00
44297;BME280;51842;47.450;8.654;2022-09-09T06:26:40;95398.91;;;13.80;100.00
44297;BME280;51842;47.450;8.654;2022-09-09T06:29:10;95398.75;;;13.91;100.00
44297;BME280;51842;47.450;8.654;2022-09-09T06:31:39;95404.78;;;14.01;100.00
44297;BME280;51842;47.450;8.654;2022-09-09T06:34:08;95409.97;;;14.11;100.00
44297;BME280;51842;47.450;8.654;2022-09-09T06:36:38;95407.44;;;14.20;100.00
44297;BME280;51842;47.450;8.654;2022-09-09T06:39:08;95405.75;;;14.24;100.00
44297;BME280;51842;47.450;8.654;2022-09-09T06:41:39;95404.38;;;14.27;100.00
44297;BME280;51842;47.450;8.654;2022-09-09T06:44:05;95402.28;;;14.24;99.02
44297;BME280;51842;47.450;8.654;2022-09-09T06:46:36;95404.59;;;14.30;99.35
44297;BME280;51842;47.450;8.654;2022-09-09T06:49:07;95405.59;;;14.34;99.33
44297;BME280;51842;47.450;8.654;2022-09-09T06:51:38;95394.66;;;14.31;99.46
44297;BME280;51842;47.450;8.654;2022-09-09T06:54:09;95399.16;;;14.35;98.98
44297;BME280;51842;47.450;8.654;2022-09-09T06:56:38;95402.63;;;14.36;98.99
44297;BME280;51842;47.450;8.654;2022-09-09T06:59:07;95400.44;;;14.38;98.60
44297;BME280;51842;47.450;8.654;2022-09-09T07:01:40;95404.72;;;14.39;98.64
44297;BME280;51842;47.450;8.654;2022-09-09T07:04:07;95410.50;;;14.46;98.11
44297;BME280;51842;47.450;8.654;2022-09-09T07:06:38;95412.31;;;14.70;98.67
44297;BME280;51842;47.450;8.654;2022-09-09T07:09:13;95412.66;;;14.96;98.85
44297;BME280;51842;47.450;8.654;2022-09-09T07:11:45;95410.06;;;15.04;97.44
44297;BME280;51842;47.450;8.654;2022-09-09T07:14:11;95408.19;;;15.05;95.58
44297;BME280;51842;47.450;8.654;2022-09-09T07:17:00;95406.38;;;15.00;95.55
44297;BME280;51842;47.450;8.654;2022-09-09T07:19:26;95413.16;;;15.12;94.91
44297;BME280;51842;47.450;8.654;2022-09-09T07:21:52;95411.25;;;15.26;95.03
44297;BME280;51842;47.450;8.654;2022-09-09T07:24:38;95409.88;;;15.42;93.99
44297;BME280;51842;47.450;8.654;2022-09-09T07:27:04;95402.13;;;15.55;93.15
44297;BME280;51842;47.450;8.654;2022-09-09T07:29:31;95410.66;;;15.84;93.80
44297;BME280;51842;47.450;8.654;2022-09-09T07:31:59;95411.22;;;15.95;91.47
44297;BME280;51842;47.450;8.654;2022-09-09T07:34:31;95408.41;;;16.00;91.25
44297;BME280;51842;47.450;8.654;2022-09-09T07:37:00;95421.00;;;16.13;89.30
44297;BME280;51842;47.450;8.654;2022-09-09T07:39:26;95422.88;;;16.49;87.79
44297;BME280;51842;47.450;8.654;2022-09-09T07:42:04;95418.16;;;17.00;85.89
44297;BME280;51842;47.450;8.654;2022-09-09T07:44:30;95414.88;;;17.51;83.55
44297;BME280;51842;47.450;8.654;2022-09-09T07:47:03;95420.56;;;18.07;81.19
44297;BME280;51842;47.450;8.654;2022-09-09T07:49:38;95428.66;;;18.59;77.97
44297;BME280;51842;47.450;8.654;2022-09-09T07:52:04;95431.75;;;19.13;78.51
44297;BME280;51842;47.450;8.654;2022-09-09T07:54:29;95432.91;;;19.80;74.76
44297;BME280;51842;47.450;8.654;2022-09-09T07:56:58;95425.97;;;20.42;70.46
44297;BME280;51842;47.450;8.654;2022-09-09T07:59:30;95425.75;;;21.01;69.87
44297;BME280;51842;47.450;8.654;2022-09-09T08:02:13;95427.66;;;21.46;66.66
44297;BME280;51842;47.450;8.654;2022-09-09T08:04:39;95435.34;;;21.44;63.51
44297;BME280;51842;47.450;8.654;2022-09-09T08:07:14;95433.00;;;21.10;63.08
44297;BME280;51842;47.450;8.654;2022-09-09T08:09:44;95435.38;;;21.11;64.96
44297;BME280;51842;47.450;8.654;2022-09-09T08:12:10;95433.59;;;21.15;65.56
44297;BME280;51842;47.450;8.654;2022-09-09T08:14:39;95438.97;;;21.03;66.30
44297;BME280;51842;47.450;8.654;2022-09-09T08:17:05;95432.84;;;20.61;65.46
44297;BME280;51842;47.450;8.654;2022-09-09T08:19:34;95431.25;;;20.39;66.38
44297;BME280;51842;47.450;8.654;2022-09-09T08:22:02;95436.63;;;20.18;67.92
44297;BME280;51842;47.450;8.654;2022-09-09T08:24:28;95442.44;;;20.07;67.18
44297;BME280;51842;47.450;8.654;2022-09-09T08:26:54;95445.84;;;19.96;69.85
44297;BME280;51842;47.450;8.654;2022-09-09T08:29:22;95438.88;;;19.95;66.49
44297;BME280;51842;47.450;8.654;2022-09-09T08:32:14;95437.69;;;20.46;65.71
44297;BME280;51842;47.450;8.654;2022-09-09T08:34:47;95438.16;;;21.02;64.59
44297;BME280;51842;47.450;8.654;2022-09-09T08:37:15;95439.75;;;21.49;62.16
44297;BME280;51842;47.450;8.654;2022-09-09T08:39:40;95442.00;;;21.96;60.24
44297;BME280;51842;47.450;8.654;2022-09-09T08:42:34;95439.75;;;21.98;61.99
44297;BME280;51842;47.450;8.654;2022-09-09T08:45:29;95442.34;;;21.82;59.05
44297;BME280;51842;47.450;8.654;2022-09-09T08:48:27;95440.44;;;21.58;60.79
44297;BME280;51842;47.450;8.654;2022-09-09T08:51:05;95451.28;;;21.13;63.32
44297;BME280;51842;47.450;8.654;2022-09-09T08:53:43;95444.66;;;20.89;63.78
44297;BME280;51842;47.450;8.654;2022-09-09T08:56:18;95448.47;;;20.55;64.28
44297;BME280;51842;47.450;8.654;2022-09-09T08:58:50;95444.34;;;20.49;65.53
44297;BME280;51842;47.450;8.654;2022-09-09T09:13:00;95446.59;;;20.89;63.10
44297;BME280;51842;47.450;8.654;2022-09-09T09:15:39;95445.19;;;21.03;63.23
44297;BME280;51842;47.450;8.654;2022-09-09T09:18:12;95443.88;;;20.89;60.32
44297;BME280;51842;47.450;8.654;2022-09-09T09:24:00;95433.75;;;20.44;60.78
44297;BME280;51842;47.450;8.654;2022-09-09T09:26:34;95447.00;;;20.37;60.74
44297;BME280;51842;47.450;8.654;2022-09-09T09:29:19;95430.78;;;20.37;61.88
44297;BME280;51842;47.450;8.654;2022-09-09T09:32:02;95429.31;;;20.39;62.68
44297;BME280;51842;47.450;8.654;2022-09-09T09:34:34;95442.88;;;20.60;62.63
44297;BME280;51842;47.450;8.654;2022-09-09T09:37:28;95448.28;;;20.60;62.05
44297;BME280;51842;47.450;8.654;2022-09-09T09:40:12;95439.56;;;20.54;59.76
44297;BME280;51842;47.450;8.654;2022-09-09T09:42:56;95440.66;;;20.11;59.71
44297;BME280;51842;47.450;8.654;2022-09-09T09:45:42;95443.97;;;20.17;61.45
44297;BME280;51842;47.450;8.654;2022-09-09T09:48:12;95443.00;;;20.22;61.13
44297;BME280;51842;47.450;8.654;2022-09-09T09:50:55;95433.41;;;20.45;58.24
44297;BME280;51842;47.450;8.654;2022-09-09T09:53:35;95447.53;;;21.05;58.66
44297;BME280;51842;47.450;8.654;2022-09-09T09:56:16;95439.84;;;21.65;56.44
44297;BME280;51842;47.450;8.654;2022-09-09T09:58:52;95439.75;;;21.74;55.17
44297;BME280;51842;47.450;8.654;2022-09-09T10:01:39;95436.47;;;21.80;58.58
44297;BME280;51842;47.450;8.654;2022-09-09T10:04:20;95433.56;;;21.73;56.63
44297;BME280;51842;47.450;8.654;2022-09-09T10:06:47;95434.69;;;21.72;54.84
44297;BME280;51842;47.450;8.654;2022-09-09T10:09:26;95437.72;;;21.70;54.10
44297;BME280;51842;47.450;8.654;2022-09-09T10:13:23;95447.09;;;21.98;54.26
44297;BME280;51842;47.450;8.654;2022-09-09T10:16:38;95435.47;;;21.60;54.67
44297;BME280;51842;47.450;8.654;2022-09-09T10:19:15;95454.72;;;21.34;54.78
44297;BME280;51842;47.450;8.654;2022-09-09T10:36:46;95452.94;;;20.30;59.12
44297;BME280;51842;47.450;8.654;2022-09-09T10:39:39;95464.22;;;20.32;58.05
44297;BME280;51842;47.450;8.654;2022-09-09T10:42:15;95462.94;;;20.08;58.41
44297;BME280;51842;47.450;8.654;2022-09-09T10:48:11;95459.41;;;20.17;58.01
44297;BME280;51842;47.450;8.654;2022-09-09T10:51:02;95451.97;;;20.34;59.41
44297;BME280;51842;47.450;8.654;2022-09-09T10:54:17;95450.09;;;20.56;57.14
44297;BME280;51842;47.450;8.654;2022-09-09T10:59:56;95447.63;;;20.96;56.51
44297;BME280;51842;47.450;8.654;2022-09-09T11:02:33;95453.78;;;21.18;55.20
44297;BME280;51842;47.450;8.654;2022-09-09T11:05:16;95449.47;;;21.50;55.47
44297;BME280;51842;47.450;8.654;2022-09-09T11:08:10;95449.25;;;21.67;53.15
44297;BME280;51842;47.450;8.654;2022-09-09T11:11:09;95439.06;;;21.89;53.24
44297;BME280;51842;47.450;8.654;2022-09-09T11:16:22;95439.47;;;22.68;51.58
44297;BME280;51842;47.450;8.654;2022-09-09T11:19:11;95440.66;;;22.95;51.38
44297;BME280;51842;47.450;8.654;2022-09-09T11:21:49;95435.63;;;23.57;51.48
44297;BME280;51842;47.450;8.654;2022-09-09T11:24:39;95425.91;;;23.72;51.56
44297;BME280;51842;47.450;8.654;2022-09-09T11:30:05;95424.47;;;23.62;51.01
44297;BME280;51842;47.450;8.654;2022-09-09T11:44:41;95404.94;;;24.82;48.27
44297;BME280;51842;47.450;8.654;2022-09-09T11:47:28;95400.66;;;25.04;47.19
44297;BME280;51842;47.450;8.654;2022-09-09T11:53:21;95400.28;;;25.48;43.39
44297;BME280;51842;47.450;8.654;2022-09-09T11:56:01;95387.53;;;25.78;43.99
44297;BME280;51842;47.450;8.654;2022-09-09T11:59:00;95389.69;;;26.19;40.84
44297;BME280;51842;47.450;8.654;2022-09-09T12:01:34;95402.94;;;25.90;44.00
44297;BME280;51842;47.450;8.654;2022-09-09T12:07:00;95385.19;;;26.03;42.93
44297;BME280;51842;47.450;8.654;2022-09-09T12:12:45;95386.66;;;26.24;42.66
44297;BME280;51842;47.450;8.654;2022-09-09T12:15:47;95375.69;;;26.50;40.24
44297;BME280;51842;47.450;8.654;2022-09-09T12:18:40;95369.44;;;26.84;40.37
44297;BME280;51842;47.450;8.654;2022-09-09T12:31:05;95363.41;;;26.37;37.14
44297;BME280;51842;47.450;8.654;2022-09-09T12:33:44;95365.81;;;26.76;38.08
44297;BME280;51842;47.450;8.654;2022-09-09T12:36:29;95353.91;;;26.95;38.89
44297;BME280;51842;47.450;8.654;2022-09-09T12:39:35;95352.72;;;26.25;36.09
44297;BME280;51842;47.450;8.654;2022-09-09T12:42:03;95346.47;;;26.24;39.40
44297;BME280;51842;47.450;8.654;2022-09-09T12:44:30;95348.94;;;26.33;35.78
44297;BME280;51842;47.450;8.654;2022-09-09T12:47:04;95350.63;;;26.45;37.83
44297;BME280;51842;47.450;8.654;2022-09-09T12:49:39;95345.81;;;27.02;38.12
44297;BME280;51842;47.450;8.654;2022-09-09T12:52:29;95341.47;;;27.42;39.55
44297;BME280;51842;47.450;8.654;2022-09-09T12:54:58;95340.50;;;27.20;34.69
44297;BME280;51842;47.450;8.654;2022-09-09T12:57:34;95323.63;;;26.36;35.38
44297;BME280;51842;47.450;8.654;2022-09-09T13:02:55;95341.09;;;26.31;40.59
44297;BME280;51842;47.450;8.654;2022-09-09T13:05:36;95325.91;;;26.00;40.68
44297;BME280;51842;47.450;8.654;2022-09-09T13:08:19;95322.97;;;25.59;42.69
44297;BME280;51842;47.450;8.654;2022-09-09T13:10:59;95333.81;;;25.56;41.87
44297;BME280;51842;47.450;8.654;2022-09-09T13:13:43;95328.81;;;25.35;42.53
44297;BME280;51842;47.450;8.654;2022-09-09T13:16:33;95335.00;;;25.09;42.92
44297;BME280;51842;47.450;8.654;2022-09-09T13:19:14;95334.44;;;25.00;42.34
44297;BME280;51842;47.450;8.654;2022-09-09T13:21:48;95328.75;;;24.85;41.79
44297;BME280;51842;47.450;8.654;2022-09-09T13:24:32;95328.94;;;24.96;43.29
44297;BME280;51842;47.450;8.654;2022-09-09T13:27:18;95322.03;;;25.02;42.51
44297;BME280;51842;47.450;8.654;2022-09-09T13:29:54;95304.16;;;24.82;41.03
44297;BME280;51842;47.450;8.654;2022-09-09T13:32:23;95309.81;;;24.92;41.46
44297;BME280;51842;47.450;8.654;2022-09-09T13:35:02;95313.19;;;25.32;41.55
44297;BME280;51842;47.450;8.654;2022-09-09T13:37:38;95307.06;;;25.65;41.75
44297;BME280;51842;47.450;8.654;2022-09-09T13:40:20;95298.84;;;25.88;40.66
44297;BME280;51842;47.450;8.654;2022-09-09T13:43:03;95301.66;;;25.69;39.56
44297;BME280;51842;47.450;8.654;2022-09-09T13:45:29;95301.94;;;25.60;38.81
44297;BME280;51842;47.450;8.654;2022-09-09T13:47:55;95302.63;;;25.53;40.03
44297;BME280;51842;47.450;8.654;2022-09-09T13:50:28;95306.59;;;25.59;40.42
44297;BME280;51842;47.450;8.654;2022-09-09T13:52:59;95298.44;;;25.86;37.58
44297;BME280;51842;47.450;8.654;2022-09-09T13:55:27;95312.44;;;26.15;37.92
44297;BME280;51842;47.450;8.654;2022-09-09T13:58:02;95295.03;;;26.26;37.21
44297;BME280;51842;47.450;8.654;2022-09-09T14:00:35;95282.25;;;26.34;36.09
44297;BME280;51842;47.450;8.654;2022-09-09T14:03:03;95290.13;;;26.39;37.06
44297;BME280;51842;47.450;8.654;2022-09-09T14:05:34;95295.25;;;26.48;34.90
44297;BME280;51842;47.450;8.654;2022-09-09T14:08:00;95295.66;;;26.46;36.14
44297;BME280;51842;47.450;8.654;2022-09-09T14:10:28;95289.34;;;26.76;37.03
44297;BME280;51842;47.450;8.654;2022-09-09T14:12:57;95281.59;;;26.82;34.63
44297;BME280;51842;47.450;8.654;2022-09-09T14:15:25;95287.78;;;26.75;33.49
44297;BME280;51842;47.450;8.654;2022-09-09T14:17:52;95293.25;;;26.41;34.64
44297;BME280;51842;47.450;8.654;2022-09-09T14:20:18;95294.34;;;26.33;34.99
44297;BME280;51842;47.450;8.654;2022-09-09T14:22:44;95289.22;;;25.98;35.08
44297;BME280;51842;47.450;8.654;2022-09-09T14:25:25;95286.94;;;25.47;35.66
44297;BME280;51842;47.450;8.654;2022-09-09T14:27:56;95294.13;;;25.09;36.83
44297;BME280;51842;47.450;8.654;2022-09-09T14:30:25;95278.38;;;25.45;35.58
44297;BME280;51842;47.450;8.654;2022-09-09T14:32:51;95284.84;;;25.36;36.04
44297;BME280;51842;47.450;8.654;2022-09-09T14:35:16;95290.31;;;24.90;40.24
44297;BME280;51842;47.450;8.654;2022-09-09T14:37:43;95299.22;;;24.87;40.19
44297;BME280;51842;47.450;8.654;2022-09-09T14:40:16;95304.28;;;25.12;39.68
44297;BME280;51842;47.450;8.654;2022-09-09T14:42:45;95309.38;;;25.36;40.72
44297;BME280;51842;47.450;8.654;2022-09-09T14:45:14;95308.69;;;25.43;38.49
44297;BME280;51842;47.450;8.654;2022-09-09T14:47:40;95311.53;;;25.24;38.66
44297;BME280;51842;47.450;8.654;2022-09-09T14:50:08;95311.72;;;25.38;39.90
44297;BME280;51842;47.450;8.654;2022-09-09T14:52:40;95309.53;;;25.47;40.15
44297;BME280;51842;47.450;8.654;2022-09-09T14:55:06;95313.38;;;25.96;39.55
44297;BME280;51842;47.450;8.654;2022-09-09T14:57:39;95309.75;;;25.88;37.30
44297;BME280;51842;47.450;8.654;2022-09-09T15:00:07;95312.63;;;25.99;38.47
44297;BME280;51842;47.450;8.654;2022-09-09T15:02:36;95311.34;;;26.23;37.43
44297;BME280;51842;47.450;8.654;2022-09-09T15:05:06;95318.66;;;26.45;37.48
44297;BME280;51842;47.450;8.654;2022-09-09T15:07:37;95312.97;;;26.58;36.75
44297;BME280;51842;47.450;8.654;2022-09-09T15:10:09;95323.84;;;26.54;37.12
44297;BME280;51842;47.450;8.654;2022-09-09T15:12:35;95319.53;;;26.53;36.72
44297;BME280;51842;47.450;8.654;2022-09-09T15:15:01;95316.50;;;26.58;36.26
44297;BME280;51842;47.450;8.654;2022-09-09T15:17:38;95319.06;;;26.81;37.23
44297;BME280;51842;47.450;8.654;2022-09-09T15:20:10;95321.78;;;26.81;36.85
44297;BME280;51842;47.450;8.654;2022-09-09T15:22:36;95323.72;;;26.77;36.96
44297;BME280;51842;47.450;8.654;2022-09-09T15:25:03;95317.53;;;26.84;36.16
44297;BME280;51842;47.450;8.654;2022-09-09T15:27:32;95323.84;;;26.95;36.24
44297;BME280;51842;47.450;8.654;2022-09-09T15:29:57;95312.16;;;27.39;34.75
44297;BME280;51842;47.450;8.654;2022-09-09T15:32:23;95315.41;;;27.52;34.96
44297;BME280;51842;47.450;8.654;2022-09-09T15:34:58;95312.28;;;27.53;35.04
44297;BME280;51842;47.450;8.654;2022-09-09T15:37:24;95313.59;;;27.22;35.49
44297;BME280;51842;47.450;8.654;2022-09-09T15:40:02;95308.47;;;27.17;35.70
44297;BME280;51842;47.450;8.654;2022-09-09T15:42:28;95306.94;;;27.23;35.80
44297;BME280;51842;47.450;8.654;2022-09-09T15:44:55;95308.84;;;27.15;35.76
44297;BME280;51842;47.450;8.654;2022-09-09T15:47:24;95302.75;;;26.92;35.31